Time;durP1;ratioP1;P1;durP2;ratioP2;P2;SDS_P1;SDS_P2;PMS_P1;PMS_P2;Temp;Humidity;BMP_temperature;BMP_pressure;BME280_temperature;BME280_humidity;BME280_pressure;Samples;Min_cycle;Max_cycle;Signal;HPM_P1;HPM_P2
2021/03/07 00:00:15;;;;;;;5.85;4.03;;;;;;;11.40;51.66;101827.56;4921441;28;126990;-60
2021/03/07 00:02:42;;;;;;;5.40;4.10;;;;;;;11.42;51.40;101835.41;4906372;28;97856;-60
2021/03/07 00:05:09;;;;;;;5.78;4.47;;;;;;;11.40;51.58;101827.56;4924068;28;104743;-60
2021/03/07 00:07:35;;;;;;;5.03;3.90;;;;;;;11.38;50.99;101824.25;4923012;28;121632;-60
2021/03/07 00:10:05;;;;;;;5.72;4.55;;;;;;;11.39;50.84;101822.38;4923583;28;117314;-61
2021/03/07 00:12:31;;;;;;;4.85;4.07;;;;;;;11.38;51.53;101821.56;4924002;28;98041;-62
2021/03/07 00:14:57;;;;;;;4.47;3.88;;;;;;;11.37;51.66;101817.22;4921677;28;112319;-61
2021/03/07 00:17:23;;;;;;;4.63;3.83;;;;;;;11.36;51.45;101820.16;4923773;28;127929;-60
2021/03/07 00:19:49;;;;;;;4.85;4.03;;;;;;;11.37;51.53;101814.53;4923206;28;127537;-60
2021/03/07 00:22:16;;;;;;;5.07;4.18;;;;;;;11.36;51.51;101817.44;4922892;28;126494;-61
2021/03/07 00:24:42;;;;;;;5.07;3.78;;;;;;;11.32;51.78;101814.44;4956433;28;97882;-61
2021/03/07 00:27:08;;;;;;;4.28;3.88;;;;;;;11.30;51.72;101811.97;4937509;28;128552;-60
2021/03/07 00:29:34;;;;;;;6.28;4.13;;;;;;;11.28;51.74;101807.88;4922872;28;128692;-61
2021/03/07 00:32:00;;;;;;;4.72;3.70;;;;;;;11.28;51.37;101808.69;4920599;28;128339;-60
2021/03/07 00:34:26;;;;;;;4.57;3.78;;;;;;;11.27;51.63;101815.13;4922478;28;98088;-61
2021/03/07 00:36:52;;;;;;;5.47;3.70;;;;;;;11.26;51.43;101807.28;4920918;28;126076;-62
2021/03/07 00:39:18;;;;;;;5.20;3.75;;;;;;;11.26;52.09;101791.91;4923117;28;127515;-61
2021/03/07 00:41:44;;;;;;;4.28;3.38;;;;;;;11.27;51.78;101790.00;4922404;28;126264;-60
2021/03/07 00:44:11;;;;;;;4.50;3.55;;;;;;;11.23;51.52;101778.88;4954224;28;117912;-62
2021/03/07 00:46:44;;;;;;;4.97;3.80;;;;;;;11.22;51.78;101782.66;4920722;28;118131;-62
2021/03/07 00:49:11;;;;;;;4.68;3.70;;;;;;;11.21;51.54;101783.72;4937661;28;108913;-62
2021/03/07 00:51:38;;;;;;;4.05;3.65;;;;;;;11.21;51.99;101783.72;4921329;28;119693;-61
2021/03/07 00:54:04;;;;;;;4.43;3.83;;;;;;;11.19;51.69;101769.63;4921113;28;117834;-60
2021/03/07 00:56:30;;;;;;;4.57;4.13;;;;;;;11.19;51.81;101760.72;4923298;28;98695;-62
2021/03/07 00:58:56;;;;;;;5.07;4.32;;;;;;;11.19;51.96;101772.31;4922298;28;125896;-62
2021/03/07 01:01:23;;;;;;;5.38;4.60;;;;;;;11.18;52.03;101767.19;4922504;28;128382;-61
2021/03/07 01:03:49;;;;;;;5.85;4.75;;;;;;;11.16;52.18;101755.78;4924016;28;97740;-61
2021/03/07 01:06:15;;;;;;;5.80;4.60;;;;;;;11.16;51.78;101751.22;4888984;28;100442;-60
2021/03/07 01:08:41;;;;;;;5.03;4.28;;;;;;;11.17;52.11;101757.44;4922743;28;127935;-61
2021/03/07 01:11:07;;;;;;;4.80;4.20;;;;;;;11.14;52.41;101752.53;4920922;28;98027;-62
2021/03/07 01:13:33;;;;;;;4.80;4.22;;;;;;;11.15;52.70;101740.66;4901317;28;118190;-60
2021/03/07 01:15:59;;;;;;;4.70;4.10;;;;;;;11.12;52.05;101738.44;4903720;28;126885;-62
2021/03/07 01:18:25;;;;;;;4.13;3.72;;;;;;;11.12;52.53;101727.63;4902864;28;117988;-62
2021/03/07 01:20:51;;;;;;;4.30;3.67;;;;;;;11.13;51.83;101726.59;4918499;28;97940;-62
2021/03/07 01:23:19;;;;;;;4.30;3.83;;;;;;;11.11;51.75;101729.53;4923921;28;98202;-62
2021/03/07 01:25:45;;;;;;;4.15;3.50;;;;;;;11.12;51.90;101720.38;4937980;28;98787;-60
2021/03/07 01:28:11;;;;;;;4.53;3.55;;;;;;;11.12;52.58;101717.69;4922087;28;116610;-60
2021/03/07 01:30:39;;;;;;;4.45;3.60;;;;;;;11.12;52.05;101711.44;4923067;28;97858;-60
2021/03/07 01:33:06;;;;;;;3.85;3.53;;;;;;;11.11;52.51;101707.13;4922587;28;98092;-62
2021/03/07 01:35:32;;;;;;;3.67;3.25;;;;;;;11.10;52.35;101700.91;4922738;28;99023;-60
2021/03/07 01:37:58;;;;;;;4.30;3.38;;;;;;;11.11;52.63;101696.31;4922807;28;98567;-61
2021/03/07 01:40:51;;;;;;;3.60;3.30;;;;;;;11.10;52.14;101702.78;4922010;28;127011;-62
2021/03/07 01:43:19;;;;;;;4.03;3.30;;;;;;;11.08;52.25;101692.22;4923485;28;97969;-60
2021/03/07 01:45:45;;;;;;;3.58;3.05;;;;;;;11.09;52.45;101684.97;4922979;28;98639;-62
2021/03/07 01:48:13;;;;;;;4.03;3.08;;;;;;;11.10;52.39;101678.50;4922229;28;108416;-62
2021/03/07 01:50:43;;;;;;;4.10;3.25;;;;;;;11.09;52.05;101674.19;4923298;28;97857;-60
2021/03/07 01:53:09;;;;;;;3.83;3.20;;;;;;;11.08;52.04;101670.63;4922373;28;97611;-62
2021/03/07 01:55:37;;;;;;;4.82;3.63;;;;;;;11.07;52.59;101663.59;4923171;28;99109;-60
2021/03/07 01:58:22;;;;;;;3.55;3.25;;;;;;;11.08;52.79;101678.72;4922266;28;108302;-60
2021/03/07 02:00:49;;;;;;;3.63;3.00;;;;;;;11.07;52.51;101672.50;4922684;28;97938;-60
2021/03/07 02:03:15;;;;;;;4.63;3.15;;;;;;;11.07;52.20;101666.31;4919628;28;118138;-62
2021/03/07 02:05:42;;;;;;;3.58;3.10;;;;;;;11.07;52.73;101666.31;4887154;28;123553;-62
2021/03/07 02:08:08;;;;;;;3.47;2.80;;;;;;;11.06;52.15;101656.56;4921441;28;97866;-62
2021/03/07 02:10:38;;;;;;;4.10;3.58;;;;;;;11.05;52.84;101661.16;4922271;28;98363;-62
2021/03/07 02:13:37;;;;;;;3.85;3.20;;;;;;;11.03;52.28;101649.78;4921113;28;98470;-62
2021/03/07 02:16:06;;;;;;;3.72;3.10;;;;;;;11.03;52.81;101651.66;4920326;28;98395;-62
2021/03/07 02:18:36;;;;;;;4.57;3.38;;;;;;;11.02;52.62;101645.44;4920111;28;117588;-62
2021/03/07 02:21:12;;;;;;;4.03;3.13;;;;;;;11.02;52.34;101644.63;4920693;28;98131;-61
2021/03/07 02:24:05;;;;;;;4.20;3.47;;;;;;;10.99;52.76;101635.13;4920777;28;97955;-60
2021/03/07 02:26:38;;;;;;;;;;;;;;;10.97;52.21;101642.66;4921348;28;98585;-62
2021/03/07 02:29:04;;;;;;;3.95;3.20;;;;;;;10.94;53.10;101640.44;4921000;28;122869;-60
2021/03/07 02:31:30;;;;;;;3.42;2.95;;;;;;;10.94;52.69;101637.75;4921849;28;122564;-62
2021/03/07 02:34:07;;;;;;;2.95;2.65;;;;;;;10.92;52.48;101631.75;4907469;28;118929;-62
2021/03/07 02:36:40;;;;;;;3.58;2.90;;;;;;;10.92;52.51;101625.53;4955635;28;106001;-62
2021/03/07 02:39:06;;;;;;;4.13;3.58;;;;;;;10.92;52.80;101625.53;4956977;28;97892;-61
2021/03/07 02:41:33;;;;;;;3.70;3.10;;;;;;;10.90;52.32;101623.09;4939424;28;126538;-61
2021/03/07 02:44:02;;;;;;;3.55;2.92;;;;;;;10.87;52.54;101615.47;4940626;28;97933;-60
2021/03/07 02:46:31;;;;;;;3.63;3.10;;;;;;;10.88;52.67;101613.59;4923490;28;121676;-62
2021/03/07 02:48:58;;;;;;;3.22;2.92;;;;;;;10.88;52.82;101622.50;4956344;28;98988;-61
2021/03/07 02:51:26;;;;;;;3.03;2.70;;;;;;;10.86;52.78;101613.03;4957261;28;97855;-62
2021/03/07 02:53:53;;;;;;;3.05;2.70;;;;;;;10.84;52.53;101607.06;4939271;28;98007;-62
2021/03/07 02:56:20;;;;;;;4.13;2.88;;;;;;;10.84;53.02;101599.78;4956274;28;102446;-60
2021/03/07 02:58:46;;;;;;;3.35;2.63;;;;;;;10.83;52.33;101598.16;4938775;28;98271;-60
2021/03/07 03:01:15;;;;;;;3.13;2.72;;;;;;;10.81;52.82;101597.59;4939771;28;126290;-61
2021/03/07 03:03:42;;;;;;;2.90;2.58;;;;;;;10.80;52.81;101596.75;4923639;28;98475;-61
2021/03/07 03:06:10;;;;;;;2.92;2.55;;;;;;;10.80;52.77;101587.84;4925625;28;104215;-61
2021/03/07 03:08:36;;;;;;;2.72;2.42;;;;;;;10.80;52.32;101583.25;4925213;28;98641;-60
2021/03/07 03:11:02;;;;;;;5.07;2.63;;;;;;;10.79;52.78;101583.50;4906958;28;98293;-60
2021/03/07 03:13:28;;;;;;;3.00;2.42;;;;;;;10.79;53.21;101583.50;4890849;28;110083;-62
2021/03/07 03:15:54;;;;;;;3.28;2.47;;;;;;;10.79;52.45;101587.03;4922620;28;123351;-62
2021/03/07 03:18:21;;;;;;;2.60;2.20;;;;;;;10.79;52.74;101578.13;4924143;28;125987;-61
2021/03/07 03:20:48;;;;;;;3.08;2.45;;;;;;;10.78;52.62;101581.88;4923849;28;126157;-62
2021/03/07 03:23:15;;;;;;;2.50;2.30;;;;;;;10.78;52.69;101579.19;4922941;28;98076;-61
2021/03/07 03:25:41;;;;;;;3.03;2.15;;;;;;;10.77;52.02;101583.75;4922122;28;128597;-60
2021/03/07 03:28:08;;;;;;;2.53;2.15;;;;;;;10.77;52.94;101582.94;4904834;28;127950;-60
2021/03/07 03:30:34;;;;;;;2.65;2.20;;;;;;;10.77;52.52;101582.94;4924334;28;112374;-62
2021/03/07 03:33:01;;;;;;;2.70;2.20;;;;;;;10.75;52.40;101583.16;4924948;28;97760;-60
2021/03/07 03:35:27;;;;;;;2.50;2.20;;;;;;;10.76;52.24;101583.97;4924088;28;117619;-60
2021/03/07 03:37:54;;;;;;;3.08;2.30;;;;;;;10.76;52.23;101582.09;4917306;28;128734;-60
2021/03/07 03:40:25;;;;;;;3.10;2.45;;;;;;;10.74;52.02;101575.34;4918498;28;127615;-61
2021/03/07 03:42:58;;;;;;;3.03;2.72;;;;;;;10.74;52.72;101570.75;4904426;28;97823;-60
2021/03/07 03:45:24;;;;;;;3.53;2.50;;;;;;;10.73;52.46;101569.13;4905212;28;98042;-62
2021/03/07 03:47:55;;;;;;;3.70;2.75;;;;;;;10.72;52.50;101570.16;4902218;28;126137;-61
2021/03/07 03:50:22;;;;;;;3.50;2.80;;;;;;;10.73;52.29;101566.44;4934519;28;121372;-61
2021/03/07 03:52:49;;;;;;;3.83;3.05;;;;;;;10.73;52.54;101574.50;4918874;28;113640;-62
2021/03/07 03:55:29;;;;;;;3.85;2.85;;;;;;;10.74;52.08;101576.16;4935478;28;110782;-62
2021/03/07 03:58:02;;;;;;;4.03;2.85;;;;;;;10.78;52.41;101569.22;4902584;28;110280;-62
2021/03/07 04:00:29;;;;;;;3.28;2.80;;;;;;;10.84;51.88;101572.00;4922300;28;98081;-61
2021/03/07 04:02:56;;;;;;;3.92;3.30;;;;;;;10.86;52.17;101570.69;4922236;28;99219;-61
2021/03/07 04:05:23;;;;;;;4.10;3.20;;;;;;;10.87;51.44;101564.22;4906772;28;98332;-62
2021/03/07 04:07:49;;;;;;;3.65;3.33;;;;;;;10.87;51.84;101571.50;4922387;28;106709;-62
2021/03/07 04:10:17;;;;;;;3.75;3.25;;;;;;;10.91;51.79;101570.78;4889053;28;129020;-61
2021/03/07 04:12:44;;;;;;;3.63;3.20;;;;;;;10.91;51.41;101578.06;4906671;28;98307;-62
2021/03/07 04:15:11;;;;;;;5.28;3.40;;;;;;;10.90;51.64;101560.25;4923464;28;110859;-62
2021/03/07 04:17:37;;;;;;;4.93;3.42;;;;;;;10.88;51.91;101565.03;4924200;28;98574;-62
2021/03/07 04:20:05;;;;;;;4.65;3.33;;;;;;;10.87;51.34;101563.41;4923914;28;112747;-62
2021/03/07 04:22:31;;;;;;;4.57;3.50;;;;;;;10.86;51.94;101559.91;4924213;28;97761;-62
2021/03/07 04:24:58;;;;;;;3.92;3.25;;;;;;;10.86;51.43;101559.09;4923698;28;110768;-61
2021/03/07 04:27:24;;;;;;;5.50;3.80;;;;;;;10.84;51.45;101561.19;4905083;28;98868;-63
2021/03/07 04:29:51;;;;;;;4.30;3.70;;;;;;;10.85;51.30;101562.84;4920715;28;114538;-61
2021/03/07 04:32:18;;;;;;;4.75;3.90;;;;;;;10.85;51.25;101562.84;4922423;28;97979;-62
2021/03/07 04:34:44;;;;;;;4.78;3.65;;;;;;;10.83;51.65;101560.38;4905800;28;98810;-61
2021/03/07 04:37:10;;;;;;;4.45;3.60;;;;;;;10.82;51.28;101554.19;4954084;28;97961;-61
2021/03/07 04:39:36;;;;;;;4.40;3.70;;;;;;;10.81;51.20;101544.47;4922458;28;128203;-63
2021/03/07 04:42:03;;;;;;;3.72;3.33;;;;;;;10.80;51.57;101536.59;4953447;28;119498;-61
2021/03/07 04:44:29;;;;;;;4.60;3.50;;;;;;;10.79;51.54;101537.66;4923509;28;118432;-63
2021/03/07 04:46:55;;;;;;;4.25;3.30;;;;;;;10.77;50.88;101539.78;4922348;28;125997;-63
2021/03/07 04:49:21;;;;;;;4.55;3.67;;;;;;;10.77;51.34;101537.91;4922114;28;125402;-62
2021/03/07 04:51:47;;;;;;;6.35;3.72;;;;;;;10.77;51.69;101535.22;4923248;28;116639;-62
2021/03/07 04:54:13;;;;;;;4.60;3.60;;;;;;;10.74;50.90;101534.88;4922506;28;120628;-63
2021/03/07 04:56:39;;;;;;;4.20;3.47;;;;;;;10.74;51.57;101534.88;4922243;28;127676;-62
2021/03/07 04:59:06;;;;;;;4.15;3.30;;;;;;;10.74;51.56;101527.59;4922716;28;116002;-62
2021/03/07 05:01:32;;;;;;;4.40;3.50;;;;;;;10.71;51.25;101527.25;4923614;28;116824;-62
2021/03/07 05:03:58;;;;;;;4.47;3.63;;;;;;;10.74;51.50;101530.31;4923302;28;126321;-62
2021/03/07 05:06:25;;;;;;;4.38;3.70;;;;;;;10.72;51.59;101528.91;4922757;28;128469;-62
2021/03/07 05:08:51;;;;;;;4.07;3.53;;;;;;;10.71;51.63;101529.97;4923524;28;98257;-61
2021/03/07 05:11:21;;;;;;;4.75;3.75;;;;;;;10.69;51.65;101527.53;4923453;28;97758;-61
2021/03/07 05:13:50;;;;;;;4.50;3.45;;;;;;;10.70;51.72;101523.75;4922986;28;98963;-62
2021/03/07 05:16:20;;;;;;;5.18;3.45;;;;;;;10.68;51.79;101517.78;4922033;28;118508;-62
2021/03/07 05:18:47;;;;;;;4.07;3.30;;;;;;;10.68;51.54;101519.66;4922866;28;98064;-61
2021/03/07 05:21:13;;;;;;;4.53;3.60;;;;;;;10.68;51.41;101516.97;4923411;28;98095;-61
2021/03/07 05:23:39;;;;;;;4.03;3.40;;;;;;;10.67;51.44;101524.22;4921849;28;127604;-63
2021/03/07 05:26:05;;;;;;;4.78;3.53;;;;;;;10.66;51.51;101519.91;4923036;28;98533;-62
2021/03/07 05:28:31;;;;;;;4.10;3.70;;;;;;;10.67;51.75;101515.34;4922138;28;127291;-61
2021/03/07 05:30:57;;;;;;;4.55;3.30;;;;;;;10.66;51.83;101519.91;4921037;28;116802;-62
2021/03/07 05:33:23;;;;;;;3.65;3.20;;;;;;;10.66;51.56;101516.41;4922079;28;128714;-62
2021/03/07 05:35:50;;;;;;;4.63;3.33;;;;;;;10.66;51.76;101511.00;4936813;28;128755;-61
2021/03/07 05:38:16;;;;;;;3.95;3.33;;;;;;;10.67;51.10;101509.94;4952623;28;109883;-61
2021/03/07 05:40:42;;;;;;;3.80;3.05;;;;;;;10.64;51.94;101505.84;4924078;28;97845;-61
2021/03/07 05:43:09;;;;;;;3.67;3.10;;;;;;;10.66;51.92;101502.91;4953233;28;98427;-61
2021/03/07 05:45:35;;;;;;;4.32;3.28;;;;;;;10.66;51.63;101502.91;4919543;28;127256;-61
2021/03/07 05:48:01;;;;;;;4.25;3.10;;;;;;;10.67;51.01;101508.06;4922262;28;120393;-62
2021/03/07 05:50:27;;;;;;;4.65;3.20;;;;;;;10.67;51.70;101509.94;4923581;28;97766;-61
2021/03/07 05:52:54;;;;;;;3.78;3.20;;;;;;;10.67;51.83;101502.66;4922379;28;98602;-62
2021/03/07 05:55:21;;;;;;;4.32;3.35;;;;;;;10.70;51.25;101504.88;4922864;28;98204;-61
2021/03/07 05:57:48;;;;;;;4.32;3.10;;;;;;;10.69;51.78;101495.16;4920337;28;98587;-61
2021/03/07 06:00:15;;;;;;;3.72;3.20;;;;;;;10.72;51.46;101499.22;4923411;28;97914;-61
2021/03/07 06:02:42;;;;;;;3.92;3.10;;;;;;;10.72;51.63;101508.13;4922407;28;98675;-62
2021/03/07 06:05:10;;;;;;;5.57;3.20;;;;;;;10.73;51.58;101512.50;4922246;28;115310;-62
2021/03/07 06:07:36;;;;;;;3.88;3.10;;;;;;;10.74;51.68;101507.91;4919043;28;98498;-61
2021/03/07 06:10:18;;;;;;;4.53;3.30;;;;;;;10.75;51.79;101506.84;4922047;28;117586;-62
2021/03/07 06:13:03;;;;;;;3.73;3.03;;;;;;;10.76;52.23;101492.28;4922302;28;102860;-62
2021/03/07 06:15:29;;;;;;;3.47;2.70;;;;;;;10.78;51.64;101500.97;4922441;28;98474;-62
2021/03/07 06:17:55;;;;;;;3.75;2.97;;;;;;;10.81;51.19;101497.78;4920999;28;113934;-61
2021/03/07 06:20:26;;;;;;;3.88;2.92;;;;;;;10.82;51.72;101504.81;4922631;28;97748;-62
2021/03/07 06:23:00;;;;;;;3.67;2.85;;;;;;;10.85;51.61;101495.44;4952781;28;98272;-61
2021/03/07 06:25:27;;;;;;;3.55;2.70;;;;;;;10.89;52.42;101493.88;4921190;28;99101;-60
2021/03/07 06:27:53;;;;;;;4.18;2.95;;;;;;;10.90;52.33;101496.31;4922389;28;106764;-61
2021/03/07 06:30:24;;;;;;;3.53;2.63;;;;;;;10.91;52.44;101497.94;4922087;28;112668;-61
2021/03/07 06:32:55;;;;;;;4.20;3.00;;;;;;;10.93;52.79;101497.72;4919734;28;99114;-61
2021/03/07 06:35:32;;;;;;;3.97;2.72;;;;;;;10.95;52.59;101492.88;4920838;28;98763;-62
2021/03/07 06:38:06;;;;;;;2.85;2.53;;;;;;;10.95;53.03;101490.19;4920588;28;98172;-62
2021/03/07 06:40:43;;;;;;;3.10;2.50;;;;;;;10.95;53.80;101488.31;4919205;28;101553;-61
2021/03/07 06:43:21;;;;;;;3.42;2.58;;;;;;;10.96;53.68;101489.13;4915054;28;118618;-61
2021/03/07 06:45:47;;;;;;;5.28;2.65;;;;;;;10.97;53.38;101486.19;4919386;28;99058;-62
2021/03/07 06:48:13;;;;;;;3.50;2.53;;;;;;;10.99;54.18;101484.03;4917559;28;128552;-61
2021/03/07 06:50:56;;;;;;;4.45;2.70;;;;;;;11.00;54.18;101487.56;4918858;28;117462;-61
2021/03/07 06:53:39;;;;;;;4.15;2.55;;;;;;;10.99;54.43;101481.34;4917270;28;98499;-62
2021/03/07 06:56:05;;;;;;;3.78;2.50;;;;;;;10.98;54.64;101487.00;4919336;28;98736;-61
2021/03/07 06:58:31;;;;;;;3.90;2.50;;;;;;;10.98;54.57;101490.50;4900460;28;110984;-61
2021/03/07 07:00:58;;;;;;;4.25;2.58;;;;;;;10.99;54.52;101492.13;4917504;28;117491;-62
2021/03/07 07:03:24;;;;;;;3.45;2.40;;;;;;;11.00;54.43;101490.25;4918291;28;98361;-62
2021/03/07 07:05:52;;;;;;;4.07;2.55;;;;;;;11.01;54.92;101495.44;4920196;28;97726;-62
2021/03/07 07:08:43;;;;;;;2.83;2.33;;;;;;;11.06;54.83;101492.00;4917160;28;98090;-61
2021/03/07 07:11:09;;;;;;;3.00;2.30;;;;;;;11.07;54.65;101491.72;4913189;28;97941;-62
2021/03/07 07:14:01;;;;;;;3.88;2.13;;;;;;;11.12;54.88;101484.78;4917613;28;127415;-62
2021/03/07 07:16:27;;;;;;;3.03;2.30;;;;;;;11.14;55.10;101482.66;4915860;28;128014;-62
2021/03/07 07:18:53;;;;;;;3.55;2.42;;;;;;;11.14;54.83;101479.97;4918447;28;126285;-62
2021/03/07 07:21:19;;;;;;;3.58;2.30;;;;;;;11.16;55.01;101475.97;4904304;28;116855;-61
2021/03/07 07:23:49;;;;;;;4.25;2.33;;;;;;;11.20;55.32;101476.25;4902900;28;128188;-61
2021/03/07 07:26:15;;;;;;;3.15;2.35;;;;;;;11.16;55.24;101472.41;4919866;28;98917;-62
2021/03/07 07:28:41;;;;;;;3.00;2.20;;;;;;;11.16;54.94;101473.28;4921910;28;97864;-61
2021/03/07 07:31:32;;;;;;;2.75;2.03;;;;;;;11.19;55.14;101483.53;4921721;28;117833;-62
2021/03/07 07:34:22;;;;;;;2.58;2.10;;;;;;;11.20;55.52;101479.81;4904203;28;98808;-62
2021/03/07 07:36:54;;;;;;;2.83;2.15;;;;;;;11.22;55.22;101480.34;4921980;28;98726;-61
2021/03/07 07:39:33;;;;;;;3.25;2.00;;;;;;;11.23;55.81;101478.47;4920126;28;98033;-61
2021/03/07 07:42:22;;;;;;;3.10;1.83;;;;;;;11.26;55.21;101478.00;4922312;28;98170;-62
2021/03/07 07:44:49;;;;;;;3.22;2.15;;;;;;;11.30;55.90;101481.81;4921971;28;99109;-61
2021/03/07 07:47:15;;;;;;;3.45;2.08;;;;;;;11.36;55.22;101478.16;4919860;28;98851;-63
2021/03/07 07:49:52;;;;;;;2.55;1.90;;;;;;;11.35;55.37;101472.97;4919955;28;98358;-62
2021/03/07 07:52:24;;;;;;;2.97;2.03;;;;;;;11.38;55.14;101476.00;4922061;28;97844;-62
2021/03/07 07:55:08;;;;;;;3.05;2.20;;;;;;;11.45;55.44;101478.53;4921976;28;98492;-60
2021/03/07 07:57:35;;;;;;;2.90;1.92;;;;;;;11.47;55.46;101474.50;4924439;28;99111;-61
2021/03/07 08:00:06;;;;;;;2.50;2.00;;;;;;;11.53;55.68;101467.31;4926773;28;98164;-61
2021/03/07 08:02:54;;;;;;;2.55;1.92;;;;;;;11.54;55.12;101480.53;4916888;28;97954;-62
2021/03/07 08:05:20;;;;;;;3.40;2.10;;;;;;;11.58;55.38;101478.16;4921691;28;98336;-61
2021/03/07 08:08:05;;;;;;;2.30;1.90;;;;;;;11.63;55.74;101470.16;4921118;28;98986;-61
2021/03/07 08:10:40;;;;;;;2.72;2.05;;;;;;;11.69;55.37;101465.63;4920704;28;119093;-62
2021/03/07 08:13:09;;;;;;;3.28;2.00;;;;;;;11.78;55.18;101466.81;4921381;28;98322;-61
2021/03/07 08:15:43;;;;;;;2.97;1.80;;;;;;;11.84;55.66;101465.84;4921182;28;98838;-61
2021/03/07 08:18:09;;;;;;;3.72;2.00;;;;;;;11.92;55.16;101468.13;4921297;28;99435;-62
2021/03/07 08:20:38;;;;;;;3.20;2.00;;;;;;;11.96;55.19;101466.53;4919158;28;98324;-61
2021/03/07 08:23:24;;;;;;;2.78;1.77;;;;;;;12.01;54.98;101466.59;4921220;28;98193;-61
2021/03/07 08:25:50;;;;;;;2.30;1.83;;;;;;;12.09;55.58;101467.22;4902807;28;98543;-63
2021/03/07 08:28:28;;;;;;;2.20;1.80;;;;;;;12.10;55.77;101466.94;4921120;28;98035;-62
2021/03/07 08:31:09;;;;;;;2.67;2.00;;;;;;;12.10;55.11;101460.72;4921356;28;98561;-61
2021/03/07 08:33:39;;;;;;;2.88;2.00;;;;;;;12.16;55.47;101459.72;4919901;28;98141;-62
2021/03/07 08:36:17;;;;;;;3.35;1.90;;;;;;;12.19;55.66;101461.94;4920044;28;101577;-61
2021/03/07 08:38:51;;;;;;;2.40;1.73;;;;;;;12.23;55.97;101454.94;4920874;28;99065;-61
2021/03/07 08:41:24;;;;;;;3.28;1.90;;;;;;;12.27;55.84;101456.06;4920028;28;98697;-63
2021/03/07 08:43:56;;;;;;;2.70;1.90;;;;;;;12.29;55.89;101456.63;4921882;28;98000;-61
2021/03/07 08:46:41;;;;;;;2.20;1.55;;;;;;;12.36;55.83;101446.41;4919859;28;99286;-61
2021/03/07 08:49:17;;;;;;;2.33;1.73;;;;;;;12.39;55.35;101440.50;4920345;28;99240;-62
2021/03/07 08:51:45;;;;;;;2.58;1.77;;;;;;;12.40;55.94;101444.03;4919736;28;98209;-61
2021/03/07 08:54:22;;;;;;;2.30;1.88;;;;;;;12.49;55.56;101442.47;4918557;28;98054;-62
2021/03/07 08:56:50;;;;;;;2.60;1.75;;;;;;;12.55;55.46;101436.06;4902252;28;100230;-62
2021/03/07 08:59:16;;;;;;;2.90;1.77;;;;;;;12.60;55.38;101438.81;4919721;28;114457;-62
2021/03/07 09:01:42;;;;;;;2.88;1.70;;;;;;;12.61;55.40;101437.72;4918774;28;100727;-63
2021/03/07 09:04:10;;;;;;;2.85;1.75;;;;;;;12.67;55.93;101427.78;4919238;28;101352;-61
2021/03/07 09:06:40;;;;;;;2.53;1.80;;;;;;;12.68;55.52;101429.41;4917652;28;98195;-62
2021/03/07 09:09:17;;;;;;;2.55;2.10;;;;;;;12.59;55.54;101426.34;4919828;28;120859;-62
2021/03/07 09:11:58;;;;;;;2.70;1.75;;;;;;;12.54;56.25;101426.31;4920364;28;97825;-61
2021/03/07 09:14:36;;;;;;;3.10;2.00;;;;;;;12.53;56.52;101421.97;4919952;28;107422;-61
2021/03/07 09:17:08;;;;;;;3.70;1.67;;;;;;;12.50;56.35;101425.22;4920331;28;98094;-61
2021/03/07 09:19:38;;;;;;;3.50;2.05;;;;;;;12.44;56.71;101412.69;4918299;28;115638;-63
2021/03/07 09:22:18;;;;;;;2.40;1.52;;;;;;;12.40;56.28;101417.81;4920266;28;98270;-61
2021/03/07 09:25:05;;;;;;;3.40;1.88;;;;;;;12.33;56.62;101416.38;4921163;28;98075;-62
2021/03/07 09:27:39;;;;;;;2.45;2.17;;;;;;;12.31;56.74;101413.94;4918546;28;97916;-61
2021/03/07 09:30:24;;;;;;;2.95;1.98;;;;;;;12.27;56.92;101418.22;4919513;28;121823;-61
2021/03/07 09:32:50;;;;;;;2.83;2.20;;;;;;;12.28;57.09;101414.44;4918871;28;98482;-61
2021/03/07 09:35:21;;;;;;;3.15;2.30;;;;;;;12.26;56.90;101416.56;4920086;28;97965;-61
2021/03/07 09:38:15;;;;;;;2.03;1.77;;;;;;;12.27;56.55;101413.63;4919284;28;98624;-61
2021/03/07 09:40:44;;;;;;;2.80;2.15;;;;;;;12.25;57.03;101415.75;4915332;28;97886;-61
2021/03/07 09:43:13;;;;;;;3.13;2.13;;;;;;;12.28;56.44;101412.56;4917654;28;98025;-61
2021/03/07 09:45:50;;;;;;;2.50;2.30;;;;;;;12.26;56.51;101411.16;4917715;28;97906;-61
2021/03/07 09:48:17;;;;;;;2.63;1.90;;;;;;;12.35;56.40;101412.34;4918345;28;98225;-62
2021/03/07 09:50:43;;;;;;;3.33;2.35;;;;;;;12.28;56.23;101412.56;4950798;28;121548;-62
2021/03/07 09:53:10;;;;;;;3.47;2.20;;;;;;;12.25;56.29;101410.34;4916423;28;127386;-63
2021/03/07 09:55:36;;;;;;;2.63;2.20;;;;;;;12.27;56.85;101407.41;4917719;28;117129;-61
2021/03/07 09:58:06;;;;;;;4.90;2.30;;;;;;;12.34;56.47;101409.88;4919082;28;100160;-62
2021/03/07 10:00:33;;;;;;;2.83;2.20;;;;;;;12.35;56.62;101411.53;4920339;28;98818;-62
2021/03/07 10:03:00;;;;;;;2.45;2.10;;;;;;;12.37;55.90;101414.78;4919775;28;97982;-61
2021/03/07 10:05:26;;;;;;;2.47;2.05;;;;;;;12.40;56.65;101406.97;4920267;28;97771;-62
2021/03/07 10:07:52;;;;;;;2.60;2.25;;;;;;;12.42;56.19;101406.75;4919174;28;128088;-61
2021/03/07 10:10:23;;;;;;;3.00;2.22;;;;;;;12.36;56.80;101411.28;4920127;28;99146;-61
2021/03/07 10:12:57;;;;;;;3.17;2.00;;;;;;;12.48;56.59;101406.50;4919108;28;98246;-62
2021/03/07 10:15:28;;;;;;;2.97;2.10;;;;;;;12.44;56.89;101410.81;4920555;28;98161;-62
2021/03/07 10:18:00;;;;;;;3.35;2.40;;;;;;;12.62;56.22;101419.63;4918397;28;99075;-62
2021/03/07 10:20:38;;;;;;;2.88;2.10;;;;;;;12.70;56.00;101409.16;4919101;28;98504;-61
2021/03/07 10:23:04;;;;;;;2.90;2.22;;;;;;;12.67;55.69;101412.34;4918338;28;121610;-61
2021/03/07 10:25:32;;;;;;;2.42;1.95;;;;;;;12.67;55.92;101409.66;4918760;28;118134;-62
2021/03/07 10:28:05;;;;;;;4.13;2.20;;;;;;;12.69;56.04;101412.09;4918321;28;117127;-61
2021/03/07 10:30:40;;;;;;;3.35;1.95;;;;;;;12.67;55.93;101416.97;4917188;28;97964;-61
2021/03/07 10:33:28;;;;;;;2.65;2.20;;;;;;;12.70;56.03;101406.44;4918735;28;98468;-62
2021/03/07 10:36:12;;;;;;;2.85;1.90;;;;;;;12.70;55.85;101394.81;4920326;28;98266;-62
2021/03/07 10:38:43;;;;;;;2.63;2.00;;;;;;;12.76;55.91;101393.75;4918566;28;99079;-61
2021/03/07 10:41:27;;;;;;;2.88;2.00;;;;;;;12.87;55.49;101402.75;4919519;28;98922;-61
2021/03/07 10:44:01;;;;;;;3.22;2.17;;;;;;;12.91;55.42;101396.56;4918768;28;97932;-61
2021/03/07 10:46:41;;;;;;;3.00;2.22;;;;;;;12.96;55.52;101402.00;4919800;28;98089;-61
2021/03/07 10:49:09;;;;;;;3.70;2.45;;;;;;;13.07;55.23;101396.66;4918628;28;99922;-63
2021/03/07 10:51:35;;;;;;;2.90;2.20;;;;;;;13.14;55.33;101395.38;4917809;28;119154;-61
2021/03/07 10:54:02;;;;;;;2.95;2.10;;;;;;;13.18;55.04;101391.06;4922464;28;99191;-62
2021/03/07 10:56:33;;;;;;;3.63;2.30;;;;;;;13.24;55.13;101381.09;4923266;28;97955;-61
2021/03/07 10:59:00;;;;;;;3.28;2.00;;;;;;;13.36;54.98;101386.28;4922784;28;97881;-62
2021/03/07 11:01:26;;;;;;;4.25;2.28;;;;;;;13.27;54.97;101385.97;4953149;28;116520;-61
2021/03/07 11:03:52;;;;;;;3.13;2.00;;;;;;;13.30;55.12;101388.16;4903697;28;127581;-61
2021/03/07 11:06:21;;;;;;;2.78;2.00;;;;;;;13.26;55.39;101382.47;4921732;28;117847;-61
2021/03/07 11:08:48;;;;;;;2.67;2.00;;;;;;;13.44;54.90;101381.22;4922452;28;98411;-63
2021/03/07 11:11:14;;;;;;;2.55;1.92;;;;;;;13.31;55.24;101372.75;4921565;28;118971;-62
2021/03/07 11:13:40;;;;;;;2.97;1.85;;;;;;;13.24;55.46;101375.69;4921661;28;98632;-61
2021/03/07 11:16:07;;;;;;;2.40;1.67;;;;;;;13.12;55.75;101366.91;4922248;28;108684;-63
2021/03/07 11:18:33;;;;;;;2.35;1.65;;;;;;;13.06;55.49;101363.38;4919807;28;127870;-62
2021/03/07 11:20:59;;;;;;;2.63;1.95;;;;;;;12.98;55.37;101361.97;4921886;28;121204;-61
2021/03/07 11:23:25;;;;;;;2.22;1.42;;;;;;;12.96;55.42;101366.00;4921054;28;127457;-63
2021/03/07 11:25:51;;;;;;;2.03;1.40;;;;;;;12.95;55.04;101367.91;4921620;28;117941;-61
2021/03/07 11:28:17;;;;;;;1.67;1.33;;;;;;;12.94;54.98;101360.06;4921099;28;127149;-62
2021/03/07 11:30:43;;;;;;;2.83;1.60;;;;;;;12.91;54.82;101366.81;4904301;28;111159;-61
2021/03/07 11:33:09;;;;;;;2.13;1.30;;;;;;;12.88;54.99;101355.69;4919367;28;128380;-62